createdAt,value
2023-03-26T00:01:21.324Z,90657.34
2023-03-26T00:03:53.634Z,90655.88
2023-03-26T00:06:25.960Z,90645.44
2023-03-26T00:08:53.458Z,90657.44
2023-03-26T00:11:22.663Z,90656.63
2023-03-26T00:13:50.193Z,90660.22
2023-03-26T00:16:19.910Z,90665.53
2023-03-26T00:18:48.988Z,90645.41
2023-03-26T00:21:18.479Z,90655.34
2023-03-26T00:23:45.490Z,90655.03
2023-03-26T00:26:12.940Z,90658.13
2023-03-26T00:28:41.843Z,90653.63
2023-03-26T00:31:14.843Z,90648.75
2023-03-26T00:33:42.024Z,90639.44
2023-03-26T00:36:14.498Z,90637.97
2023-03-26T00:38:43.062Z,90626.31
2023-03-26T00:41:22.888Z,90627.91
2023-03-26T00:43:53.508Z,90625.22
2023-03-26T00:46:20.383Z,90625.28
2023-03-26T00:48:47.362Z,90626.25
2023-03-26T00:51:16.157Z,90633.19
2023-03-26T00:53:45.153Z,90632.31
2023-03-26T00:56:12.379Z,90635.41
2023-03-26T00:58:39.958Z,90629.94
2023-03-26T01:01:10.796Z,90626.16
2023-03-26T01:03:38.715Z,90618.06
2023-03-26T01:06:08.160Z,90625.88
2023-03-26T01:08:38.390Z,90622.88
2023-03-26T01:11:14.452Z,90597.41
2023-03-26T01:13:48.546Z,90612.34
2023-03-26T01:16:26.301Z,90616.00
2023-03-26T01:18:54.085Z,90631.53
2023-03-26T01:21:23.175Z,90613.63
2023-03-26T01:24:02.481Z,90609.19
2023-03-26T01:26:38.942Z,90614.09
2023-03-26T01:29:10.162Z,90614.47
2023-03-26T01:31:37.137Z,90607.81
2023-03-26T01:34:19.822Z,90619.72
2023-03-26T01:37:18.562Z,90615.25
2023-03-26T01:39:57.089Z,90610.44
2023-03-26T01:42:33.314Z,90605.88
2023-03-26T01:45:23.072Z,90606.22
2023-03-26T01:47:50.582Z,90609.63
2023-03-26T01:50:17.224Z,90619.00
2023-03-26T01:52:43.920Z,90611.22
2023-03-26T01:55:14.419Z,90607.16
2023-03-26T01:57:47.552Z,90614.56
2023-03-26T02:00:20.891Z,90617.06
2023-03-26T02:03:01.965Z,90593.41
2023-03-26T02:05:44.183Z,90616.22
2023-03-26T02:08:21.160Z,90628.72
2023-03-26T02:10:52.515Z,90616.47
2023-03-26T02:13:19.327Z,90621.69
2023-03-26T02:16:03.396Z,90621.81
2023-03-26T02:18:42.022Z,90634.28
2023-03-26T02:21:13.408Z,90633.22
2023-03-26T02:23:46.882Z,90634.84
2023-03-26T02:26:16.611Z,90646.66
2023-03-26T02:28:43.364Z,90645.47
2023-03-26T02:31:11.221Z,90655.22
2023-03-26T02:33:38.002Z,90636.97
2023-03-26T02:36:05.234Z,90646.72
2023-03-26T02:38:35.506Z,90656.53
2023-03-26T02:41:03.204Z,90653.91
2023-03-26T02:43:30.728Z,90666.94
2023-03-26T02:45:58.002Z,90667.16
2023-03-26T02:48:25.339Z,90658.31
2023-03-26T02:50:54.503Z,90660.66
2023-03-26T02:53:21.923Z,90659.25
2023-03-26T02:55:48.598Z,90653.84
2023-03-26T02:58:18.262Z,90663.56
2023-03-26T03:00:46.945Z,90665.97
2023-03-26T03:03:14.465Z,90660.06
2023-03-26T03:05:43.354Z,90648.22
2023-03-26T03:08:10.375Z,90658.13
2023-03-26T03:10:37.889Z,90658.19
2023-03-26T03:13:07.866Z,90658.88
2023-03-26T03:15:35.117Z,90667.50
2023-03-26T03:18:02.530Z,90662.03
2023-03-26T03:20:30.646Z,90668.78
2023-03-26T03:22:57.329Z,90669.59
2023-03-26T03:25:26.104Z,90672.53
2023-03-26T03:27:54.053Z,90673.31
2023-03-26T03:30:21.036Z,90666.59
2023-03-26T03:32:47.940Z,90669.59
2023-03-26T03:35:14.617Z,90652.38
2023-03-26T03:37:41.627Z,90672.69
2023-03-26T03:40:11.141Z,90672.25
2023-03-26T03:42:38.539Z,90673.41
2023-03-26T03:45:06.910Z,90676.81
2023-03-26T03:47:33.779Z,90665.50
2023-03-26T03:50:01.057Z,90684.94
2023-03-26T03:52:28.231Z,90683.78
2023-03-26T03:55:00.550Z,90680.56
2023-03-26T03:57:28.614Z,90679.44
2023-03-26T03:59:58.528Z,90677.72
2023-03-26T04:02:26.881Z,90675.75
2023-03-26T04:04:54.385Z,90676.59
2023-03-26T04:07:21.225Z,90677.91
2023-03-26T04:09:47.948Z,90670.97
2023-03-26T04:12:14.985Z,90687.66
2023-03-26T04:14:42.099Z,90691.75
2023-03-26T04:17:09.087Z,90699.75
2023-03-26T04:19:35.874Z,90688.94
2023-03-26T04:22:02.727Z,90691.53
2023-03-26T04:24:30.243Z,90691.13
2023-03-26T04:27:01.434Z,90696.38
2023-03-26T04:29:30.758Z,90695.22
2023-03-26T04:32:06.659Z,90701.78
2023-03-26T04:34:34.388Z,90705.41
2023-03-26T04:37:05.084Z,90720.44
2023-03-26T04:39:34.329Z,90704.16
2023-03-26T04:42:01.380Z,90710.66
2023-03-26T04:44:30.367Z,90719.56
2023-03-26T04:46:57.106Z,90726.16
2023-03-26T04:49:23.728Z,90730.34
2023-03-26T04:51:50.747Z,90726.28
2023-03-26T04:54:20.248Z,90741.16
2023-03-26T04:57:05.081Z,90725.78
2023-03-26T04:59:37.224Z,90717.97
2023-03-26T05:02:07.976Z,90724.28
2023-03-26T05:04:36.927Z,90715.03
2023-03-26T05:07:03.718Z,90712.44
2023-03-26T05:09:30.768Z,90718.50
2023-03-26T05:11:58.404Z,90708.25
2023-03-26T05:14:25.101Z,90709.22
2023-03-26T05:16:53.335Z,90711.88
2023-03-26T05:19:20.293Z,90715.16
2023-03-26T05:21:46.976Z,90726.84
2023-03-26T05:24:13.642Z,90717.63
2023-03-26T05:26:40.346Z,90722.69
2023-03-26T05:29:07.107Z,90712.88
2023-03-26T05:31:33.882Z,90723.81
2023-03-26T05:34:00.749Z,90728.13
2023-03-26T05:36:30.962Z,90721.41
2023-03-26T05:38:57.696Z,90718.50
2023-03-26T05:41:24.385Z,90711.88
2023-03-26T05:43:51.276Z,90728.75
2023-03-26T05:46:20.306Z,90723.75
2023-03-26T05:48:47.290Z,90725.69
2023-03-26T05:51:15.663Z,90730.50
2023-03-26T05:53:43.209Z,90722.16
2023-03-26T05:56:10.623Z,90729.75
2023-03-26T05:58:38.052Z,90723.09
2023-03-26T06:01:08.456Z,90717.19
2023-03-26T06:03:39.960Z,90715.69
2023-03-26T06:06:15.620Z,90712.22
2023-03-26T06:08:48.952Z,90712.22
2023-03-26T06:11:29.882Z,90718.28
2023-03-26T06:13:56.631Z,90716.28
2023-03-26T06:16:27.284Z,90727.56
2023-03-26T06:18:56.428Z,90740.25
2023-03-26T06:21:25.753Z,90742.69
2023-03-26T06:23:53.291Z,90747.41
2023-03-26T06:26:19.927Z,90758.50
2023-03-26T06:28:46.691Z,90757.19
2023-03-26T06:31:13.462Z,90768.06
2023-03-26T06:33:40.251Z,90771.81
2023-03-26T06:36:07.367Z,90768.53
2023-03-26T06:38:34.077Z,90771.59
2023-03-26T06:41:07.223Z,90768.44
2023-03-26T06:43:34.204Z,90776.16
2023-03-26T06:46:01.667Z,90775.00
2023-03-26T06:48:32.689Z,90767.22
2023-03-26T06:50:59.446Z,90770.59
2023-03-26T06:53:26.329Z,90775.69
2023-03-26T06:55:55.071Z,90775.84
2023-03-26T06:58:22.383Z,90778.25
2023-03-26T07:00:53.772Z,90771.88
2023-03-26T07:03:20.943Z,90769.75
2023-03-26T07:05:47.871Z,90767.31
2023-03-26T07:08:14.934Z,90766.72
2023-03-26T07:10:42.113Z,90773.69
2023-03-26T07:13:08.802Z,90770.81
2023-03-26T07:15:35.936Z,90778.22
2023-03-26T07:18:02.719Z,90780.25
2023-03-26T07:20:29.932Z,90788.03
2023-03-26T07:22:56.961Z,90771.91
2023-03-26T07:25:23.935Z,90776.16
2023-03-26T07:28:27.430Z,90787.09
2023-03-26T07:31:11.774Z,90769.28
2023-03-26T07:33:47.733Z,90771.09
2023-03-26T07:36:29.597Z,90773.69
2023-03-26T07:39:12.418Z,90780.28
2023-03-26T07:41:44.816Z,90776.97
2023-03-26T07:44:29.600Z,90780.81
2023-03-26T07:46:57.262Z,90778.63
2023-03-26T07:49:24.186Z,90783.59
2023-03-26T07:51:51.176Z,90783.66
2023-03-26T07:54:18.351Z,90779.19
2023-03-26T07:56:59.157Z,90787.31
2023-03-26T07:59:47.897Z,90790.75
2023-03-26T08:02:17.731Z,90793.22
2023-03-26T08:05:03.949Z,90798.66
2023-03-26T08:07:58.641Z,90796.56
2023-03-26T08:10:39.126Z,90796.44
2023-03-26T08:13:30.442Z,90800.41
2023-03-26T08:16:29.439Z,90783.97
2023-03-26T08:19:33.401Z,90789.16
2023-03-26T08:22:27.246Z,90786.75
2023-03-26T08:25:01.495Z,90791.31
2023-03-26T08:27:43.385Z,90789.56
2023-03-26T08:30:25.500Z,90796.06
2023-03-26T08:32:56.813Z,90789.00
2023-03-26T08:35:26.276Z,90799.06
2023-03-26T08:37:53.664Z,90798.59
2023-03-26T08:41:05.373Z,90799.56
2023-03-26T08:44:08.968Z,90792.88
2023-03-26T08:47:20.802Z,90795.84
2023-03-26T08:50:24.550Z,90803.19
2023-03-26T08:52:51.268Z,90801.75
2023-03-26T08:55:20.916Z,90798.00
2023-03-26T08:57:59.028Z,90789.31
2023-03-26T09:01:00.316Z,90791.91
2023-03-26T09:04:14.975Z,90798.16
2023-03-26T09:07:01.665Z,90787.31
2023-03-26T09:10:07.032Z,90791.28
2023-03-26T09:12:59.052Z,90792.09
2023-03-26T09:16:07.816Z,90782.63
2023-03-26T09:19:03.915Z,90786.56
2023-03-26T09:22:02.767Z,90782.78
2023-03-26T09:25:13.639Z,90791.28
2023-03-26T09:28:12.025Z,90784.97
2023-03-26T09:31:11.849Z,90785.94
2023-03-26T09:33:47.714Z,90781.19
2023-03-26T09:36:38.187Z,90768.38
2023-03-26T09:39:08.751Z,90778.97
2023-03-26T09:41:44.002Z,90777.16
2023-03-26T09:44:35.700Z,90776.75
2023-03-26T09:47:40.330Z,90789.50
2023-03-26T09:50:40.244Z,90776.09
2023-03-26T09:53:25.364Z,90776.84
2023-03-26T09:56:10.980Z,90773.94
2023-03-26T09:58:59.774Z,90777.22
2023-03-26T10:01:40.653Z,90769.28
2023-03-26T10:04:27.364Z,90767.97
2023-03-26T10:07:07.857Z,90767.88
2023-03-26T10:09:56.723Z,90769.75
2023-03-26T10:12:44.432Z,90766.97
2023-03-26T10:15:58.703Z,90778.88
2023-03-26T10:19:08.860Z,90764.88
2023-03-26T10:21:55.220Z,90773.59
2023-03-26T10:24:33.972Z,90770.16
2023-03-26T10:27:25.496Z,90780.13
2023-03-26T10:29:52.239Z,90768.88
2023-03-26T10:32:34.068Z,90767.09
2023-03-26T10:35:09.938Z,90761.16
2023-03-26T10:37:43.558Z,90766.50
2023-03-26T10:40:19.273Z,90764.09
2023-03-26T10:43:23.215Z,90758.31
2023-03-26T10:46:01.594Z,90749.75
2023-03-26T10:48:47.755Z,90752.56
2023-03-26T10:51:29.582Z,90745.69
2023-03-26T10:54:24.721Z,90743.47
2023-03-26T10:56:52.425Z,90746.50
2023-03-26T10:59:19.305Z,90723.09
2023-03-26T11:02:30.092Z,90739.06
2023-03-26T11:05:09.118Z,90741.91
2023-03-26T11:07:43.947Z,90729.19
2023-03-26T11:10:26.023Z,90733.75
2023-03-26T11:13:20.578Z,90721.47
2023-03-26T11:16:09.769Z,90720.28
2023-03-26T11:18:57.838Z,90714.41
2023-03-26T11:21:32.471Z,90714.06
2023-03-26T11:24:08.239Z,90704.53
2023-03-26T11:27:15.298Z,90711.63
2023-03-26T11:30:06.233Z,90690.44
2023-03-26T11:32:43.112Z,90687.94
2023-03-26T11:35:42.326Z,90684.97
2023-03-26T11:38:40.253Z,90680.50
2023-03-26T11:41:16.861Z,90671.63
2023-03-26T11:43:56.423Z,90662.47
2023-03-26T11:46:24.855Z,90664.22
2023-03-26T11:48:59.948Z,90645.06
2023-03-26T11:51:33.693Z,90653.81
2023-03-26T11:54:01.792Z,90654.84
2023-03-26T11:57:04.905Z,90642.38
2023-03-26T11:59:57.645Z,90634.78
2023-03-26T12:02:25.005Z,90641.31
2023-03-26T12:04:56.074Z,90641.41
2023-03-26T12:07:31.826Z,90641.78
2023-03-26T12:10:18.117Z,90625.13
2023-03-26T12:12:47.231Z,90623.94
2023-03-26T12:15:16.265Z,90618.88
2023-03-26T12:17:43.301Z,90617.22
2023-03-26T12:20:32.755Z,90614.25
2023-03-26T12:23:05.251Z,90605.00
2023-03-26T12:25:38.653Z,90603.91
2023-03-26T12:28:18.089Z,90593.44
2023-03-26T12:30:58.375Z,90592.53
2023-03-26T12:33:28.245Z,90597.63
2023-03-26T12:36:00.752Z,90596.78
2023-03-26T12:38:35.915Z,90602.63
2023-03-26T12:41:05.885Z,90605.28
2023-03-26T12:44:51.245Z,90598.91
2023-03-26T12:47:46.201Z,90592.34
2023-03-26T12:49:23.165Z,90586.75
2023-03-26T12:51:56.929Z,90572.88
2023-03-26T12:54:54.179Z,90583.41
2023-03-26T12:57:25.062Z,90578.78
2023-03-26T13:00:25.641Z,90577.63
2023-03-26T13:03:11.489Z,90591.94
2023-03-26T13:05:51.228Z,90585.91
2023-03-26T13:08:39.650Z,90590.25
2023-03-26T13:11:06.394Z,90576.66
2023-03-26T13:14:02.120Z,90564.91
2023-03-26T13:16:47.215Z,90562.06
2023-03-26T13:19:40.556Z,90557.59
2023-03-26T13:22:15.293Z,90564.53
2023-03-26T13:25:19.044Z,90557.28
2023-03-26T13:27:48.456Z,90553.31
2023-03-26T13:30:42.712Z,90556.13
2023-03-26T13:33:21.813Z,90558.28
2023-03-26T13:36:06.553Z,90553.38
2023-03-26T13:39:03.412Z,90564.06
2023-03-26T13:41:57.681Z,90567.34
2023-03-26T13:44:45.962Z,90571.34
2023-03-26T13:47:27.710Z,90574.34
2023-03-26T13:50:00.655Z,90575.97
2023-03-26T13:52:37.978Z,90574.97
2023-03-26T13:55:37.400Z,90571.94
2023-03-26T13:58:22.537Z,90580.25
2023-03-26T14:00:49.149Z,90583.41
2023-03-26T14:03:31.794Z,90586.81
2023-03-26T14:06:04.437Z,90598.56
2023-03-26T14:08:38.446Z,90589.66
2023-03-26T14:11:31.860Z,90591.44
2023-03-26T14:14:11.354Z,90589.00
2023-03-26T14:16:48.348Z,90596.09
2023-03-26T14:20:05.420Z,90605.78
2023-03-26T14:23:09.926Z,90611.50
2023-03-26T14:25:50.397Z,90617.03
2023-03-26T14:28:20.068Z,90624.38
2023-03-26T14:31:30.128Z,90613.91
2023-03-26T14:33:57.158Z,90629.06
2023-03-26T14:36:49.864Z,90624.47
2023-03-26T14:39:19.356Z,90617.53
2023-03-26T14:41:53.316Z,90574.00
2023-03-26T14:44:56.509Z,90626.53
2023-03-26T14:47:26.681Z,90640.53
2023-03-26T14:50:20.552Z,90642.69
2023-03-26T14:52:52.239Z,90643.25
2023-03-26T14:55:58.811Z,90651.63
2023-03-26T14:58:50.837Z,90653.88
2023-03-26T15:01:25.368Z,90657.00
2023-03-26T15:04:10.972Z,90659.78
2023-03-26T15:07:04.980Z,90657.44
2023-03-26T15:09:53.343Z,90682.28
2023-03-26T15:12:41.851Z,90679.22
2023-03-26T15:15:34.669Z,90678.97
2023-03-26T15:18:20.039Z,90678.38
2023-03-26T15:20:56.232Z,90670.19
2023-03-26T15:23:47.325Z,90668.91
2023-03-26T15:26:45.494Z,90677.72
2023-03-26T15:29:30.765Z,90671.47
2023-03-26T15:32:26.072Z,90667.22
2023-03-26T15:35:32.289Z,90669.38
2023-03-26T15:38:21.813Z,90684.09
2023-03-26T15:41:19.595Z,90675.38
2023-03-26T15:44:24.216Z,90675.16
2023-03-26T15:47:23.014Z,90679.84
2023-03-26T15:49:59.209Z,90678.00
2023-03-26T15:52:38.751Z,90685.06
2023-03-26T15:55:21.286Z,90693.38
2023-03-26T15:58:12.975Z,90691.47
2023-03-26T16:01:10.668Z,90696.19
2023-03-26T16:03:50.864Z,90687.41
2023-03-26T16:06:32.925Z,90695.25
2023-03-26T16:09:18.331Z,90702.97
2023-03-26T16:11:54.099Z,90682.84
2023-03-26T16:14:43.106Z,90706.72
2023-03-26T16:17:27.835Z,90704.53
2023-03-26T16:20:33.435Z,90712.19
2023-03-26T16:23:04.634Z,90723.53
2023-03-26T16:25:53.200Z,90715.25
2023-03-26T16:28:28.427Z,90715.41
2023-03-26T16:31:36.831Z,90726.78
2023-03-26T16:34:09.332Z,90723.69
2023-03-26T16:36:44.678Z,90729.38
2023-03-26T16:39:18.889Z,90733.50
2023-03-26T16:41:47.212Z,90732.69
2023-03-26T16:44:19.650Z,90728.75
2023-03-26T16:47:29.887Z,90734.06
2023-03-26T16:50:24.580Z,90727.38
2023-03-26T16:53:09.413Z,90730.47
2023-03-26T16:55:38.820Z,90740.13
2023-03-26T16:58:22.078Z,90739.69
2023-03-26T17:00:52.483Z,90744.69
2023-03-26T17:03:29.215Z,90750.16
2023-03-26T17:05:56.701Z,90753.56
2023-03-26T17:08:48.223Z,90753.84
2023-03-26T17:11:24.350Z,90749.41
2023-03-26T17:14:03.605Z,90764.72
2023-03-26T17:16:43.410Z,90753.22
2023-03-26T17:19:34.763Z,90762.66
2023-03-26T17:22:32.689Z,90762.38
2023-03-26T17:25:28.777Z,90766.94
2023-03-26T17:28:07.282Z,90780.75
2023-03-26T17:31:04.659Z,90775.88
2023-03-26T17:33:34.759Z,90786.97
2023-03-26T17:36:13.883Z,90792.19
2023-03-26T17:38:40.818Z,90801.28
2023-03-26T17:41:17.457Z,90802.19
2023-03-26T17:43:52.300Z,90803.09
2023-03-26T17:46:25.136Z,90809.41
2023-03-26T17:49:16.723Z,90817.44
2023-03-26T17:51:58.478Z,90825.84
2023-03-26T17:54:45.678Z,90829.59
2023-03-26T17:57:42.062Z,90829.47
2023-03-26T18:00:18.342Z,90824.88
2023-03-26T18:02:54.159Z,90823.81
2023-03-26T18:05:22.915Z,90815.94
2023-03-26T18:08:13.474Z,90821.16
2023-03-26T18:11:02.409Z,90830.47
2023-03-26T18:13:57.028Z,90833.53
2023-03-26T18:16:32.112Z,90835.66
2023-03-26T18:18:59.704Z,90835.66
2023-03-26T18:21:38.319Z,90834.84
2023-03-26T18:24:08.843Z,90825.03
2023-03-26T18:26:47.433Z,90827.28
2023-03-26T18:29:28.572Z,90836.31
2023-03-26T18:32:17.478Z,90837.13
2023-03-26T18:34:50.135Z,90832.13
2023-03-26T18:37:34.872Z,90836.66
2023-03-26T18:40:10.183Z,90843.34
2023-03-26T18:42:37.517Z,90833.59
2023-03-26T18:45:09.559Z,90830.56
2023-03-26T18:47:38.273Z,90825.72
2023-03-26T18:50:05.588Z,90831.41
2023-03-26T18:52:32.582Z,90823.94
2023-03-26T18:55:01.822Z,90832.56
2023-03-26T18:57:29.901Z,90829.19
2023-03-26T19:00:10.264Z,90828.44
2023-03-26T19:02:39.097Z,90835.19
2023-03-26T19:05:07.365Z,90824.72
2023-03-26T19:07:36.004Z,90832.59
2023-03-26T19:10:02.853Z,90827.69
2023-03-26T19:12:33.260Z,90823.97
2023-03-26T19:15:13.068Z,90834.81
2023-03-26T19:17:53.420Z,90823.94
2023-03-26T19:20:24.647Z,90832.00
2023-03-26T19:22:52.165Z,90824.97
2023-03-26T19:25:29.930Z,90833.94
2023-03-26T19:27:57.000Z,90830.63
2023-03-26T19:30:31.828Z,90805.88
2023-03-26T19:33:13.029Z,90830.63
2023-03-26T19:35:42.397Z,90832.13
2023-03-26T19:38:44.199Z,90830.88
2023-03-26T19:41:43.962Z,90828.16
2023-03-26T19:44:21.424Z,90835.69
2023-03-26T19:46:53.930Z,90836.81
2023-03-26T19:49:33.321Z,90827.09
2023-03-26T19:52:05.572Z,90804.66
2023-03-26T19:54:32.491Z,90824.72
2023-03-26T19:57:00.978Z,90827.22
2023-03-26T19:59:27.795Z,90821.28
2023-03-26T20:01:54.508Z,90829.19
2023-03-26T20:04:21.354Z,90822.81
2023-03-26T20:06:49.523Z,90817.91
2023-03-26T20:09:16.759Z,90811.16
2023-03-26T20:11:43.581Z,90807.00
2023-03-26T20:14:25.898Z,90805.41
2023-03-26T20:16:53.124Z,90812.56
2023-03-26T20:19:20.619Z,90812.19
2023-03-26T20:21:47.604Z,90813.31
2023-03-26T20:24:17.119Z,90805.88
2023-03-26T20:26:46.228Z,90807.03
2023-03-26T20:29:14.268Z,90803.78
2023-03-26T20:31:42.138Z,90795.22
2023-03-26T20:34:15.162Z,90806.41
2023-03-26T20:36:41.969Z,90793.47
2023-03-26T20:39:09.698Z,90793.19
2023-03-26T20:41:43.372Z,90788.78
2023-03-26T20:44:16.086Z,90784.66
2023-03-26T20:46:44.388Z,90794.00
2023-03-26T20:49:12.233Z,90789.41
2023-03-26T20:51:42.021Z,90787.47
2023-03-26T20:54:17.890Z,90777.41
2023-03-26T20:56:45.722Z,90773.69
2023-03-26T20:59:17.968Z,90778.41
2023-03-26T21:01:47.525Z,90775.75
2023-03-26T21:04:16.302Z,90766.00
2023-03-26T21:06:43.687Z,90766.59
2023-03-26T21:09:17.834Z,90766.44
2023-03-26T21:12:05.152Z,90766.91
2023-03-26T21:14:44.322Z,90770.25
2023-03-26T21:17:18.078Z,90767.38
2023-03-26T21:19:45.555Z,90758.91
2023-03-26T21:22:32.561Z,90755.88
2023-03-26T21:25:17.379Z,90754.59
2023-03-26T21:28:02.584Z,90756.41
2023-03-26T21:30:29.698Z,90753.56
2023-03-26T21:32:56.422Z,90751.44
2023-03-26T21:35:23.780Z,90739.97
2023-03-26T21:37:50.973Z,90735.94
2023-03-26T21:40:19.882Z,90734.78
2023-03-26T21:42:52.160Z,90728.72
2023-03-26T21:45:20.066Z,90735.84
2023-03-26T21:47:47.742Z,90731.81
2023-03-26T21:50:18.045Z,90729.22
2023-03-26T21:52:48.453Z,90733.41
2023-03-26T21:55:17.853Z,90720.78
2023-03-26T21:58:04.758Z,90721.94
2023-03-26T22:00:55.088Z,90714.97
2023-03-26T22:03:33.147Z,90722.94
2023-03-26T22:06:16.181Z,90718.47
2023-03-26T22:08:43.112Z,90721.25
2023-03-26T22:11:12.278Z,90723.59
2023-03-26T22:13:39.222Z,90716.63
2023-03-26T22:16:08.313Z,90719.91
2023-03-26T22:18:35.290Z,90717.84
2023-03-26T22:21:02.573Z,90717.66
2023-03-26T22:23:36.131Z,90720.72
2023-03-26T22:26:04.397Z,90721.03
2023-03-26T22:28:31.295Z,90724.09
2023-03-26T22:30:58.537Z,90722.09
2023-03-26T22:33:25.655Z,90723.97
2023-03-26T22:35:52.561Z,90726.28
2023-03-26T22:38:19.384Z,90729.38
2023-03-26T22:40:55.181Z,90730.00
2023-03-26T22:43:22.085Z,90729.69
2023-03-26T22:45:53.785Z,90729.47
2023-03-26T22:48:24.665Z,90733.41
2023-03-26T22:51:03.132Z,90725.59
2023-03-26T22:53:30.936Z,90724.84
2023-03-26T22:55:59.008Z,90722.28
2023-03-26T22:58:28.386Z,90719.13
2023-03-26T23:01:08.337Z,90723.81
2023-03-26T23:03:36.943Z,90724.97
2023-03-26T23:06:07.405Z,90710.66
2023-03-26T23:08:35.261Z,90686.47
2023-03-26T23:11:02.390Z,90679.34
2023-03-26T23:13:29.043Z,90712.31
2023-03-26T23:15:57.268Z,90711.63
2023-03-26T23:18:24.379Z,90708.69
2023-03-26T23:20:54.985Z,90710.69
2023-03-26T23:23:27.471Z,90708.69
2023-03-26T23:25:55.118Z,90714.41
2023-03-26T23:28:24.102Z,90713.06
2023-03-26T23:30:52.579Z,90706.66
2023-03-26T23:33:30.314Z,90685.22
2023-03-26T23:36:00.050Z,90700.72
2023-03-26T23:38:43.572Z,90704.09
2023-03-26T23:41:15.274Z,90703.47
2023-03-26T23:43:54.248Z,90699.06
2023-03-26T23:46:23.598Z,90691.09
2023-03-26T23:48:55.116Z,90688.41
2023-03-26T23:51:22.348Z,90681.31
2023-03-26T23:53:49.790Z,90682.78
2023-03-26T23:56:17.232Z,90682.97
2023-03-26T23:58:44.126Z,90677.75
